Time;durP1;ratioP1;P1;durP2;ratioP2;P2;SDS_P1;SDS_P2;PMS_P1;PMS_P2;Temp;Humidity;BMP_temperature;BMP_pressure;BME280_temperature;BME280_humidity;BME280_pressure;Samples;Min_cycle;Max_cycle;Signal;HPM_P1;HPM_P2
2022/09/11 00:01:48;;;;;;;2.70;0.63;;;;;;;;;;5085084;28;20202;-69
2022/09/11 00:04:14;;;;;;;1.23;0.75;;;;;;;;;;5084720;28;20204;-69
2022/09/11 00:06:42;;;;;;;2.35;0.77;;;;;;;;;;5084730;28;20535;-69
2022/09/11 00:09:08;;;;;;;1.30;0.82;;;;;;;;;;5085203;28;20707;-69
2022/09/11 00:11:36;;;;;;;1.83;0.60;;;;;;;;;;5085133;28;20426;-70
2022/09/11 00:14:02;;;;;;;3.03;0.70;;;;;;;;;;5084631;28;20208;-69
2022/09/11 00:16:32;;;;;;;0.50;0.50;;;;;;;;;;5084716;28;20203;-69
2022/09/11 00:19:00;;;;;;;1.08;0.73;;;;;;;;;;5084732;28;20242;-70
2022/09/11 00:21:28;;;;;;;1.33;0.70;;;;;;;;;;5084550;28;20266;-70
2022/09/11 00:23:54;;;;;;;1.83;0.70;;;;;;;;;;5083684;28;20547;-70
2022/09/11 00:26:20;;;;;;;2.88;0.60;;;;;;;;;;5084723;28;20258;-69
2022/09/11 00:28:48;;;;;;;3.40;0.70;;;;;;;;;;5084495;28;20200;-70
2022/09/11 00:31:15;;;;;;;0.75;0.63;;;;;;;;;;5084491;28;20193;-70
2022/09/11 00:33:43;;;;;;;2.33;0.80;;;;;;;;;;5084238;28;20211;-70
2022/09/11 00:36:11;;;;;;;3.10;0.70;;;;;;;;;;5084167;28;20415;-70
2022/09/11 00:38:37;;;;;;;0.80;0.80;;;;;;;;;;5084310;28;20266;-70
2022/09/11 00:41:05;;;;;;;2.22;1.00;;;;;;;;;;5084305;28;20216;-70
2022/09/11 00:43:46;;;;;;;2.47;0.50;;;;;;;;;;5084412;28;20200;-70
2022/09/11 00:46:12;;;;;;;1.75;0.60;;;;;;;;;;5084011;28;20249;-70
2022/09/11 00:48:38;;;;;;;0.88;0.63;;;;;;;;;;5084536;28;20508;-70
2022/09/11 00:51:06;;;;;;;0.68;0.50;;;;;;;;;;5084135;28;20196;-70
2022/09/11 00:53:34;;;;;;;1.25;0.80;;;;;;;;;;5083801;28;20246;-70
2022/09/11 00:56:01;;;;;;;0.70;0.70;;;;;;;;;;5083878;28;20200;-70
2022/09/11 00:58:30;;;;;;;0.50;0.50;;;;;;;;;;5084015;28;20496;-70
2022/09/11 01:00:57;;;;;;;2.50;0.68;;;;;;;;;;5083712;28;20231;-70
2022/09/11 01:03:24;;;;;;;0.77;0.77;;;;;;;;;;5083396;28;20246;-70
2022/09/11 01:05:51;;;;;;;0.85;0.70;;;;;;;;;;5083882;28;20220;-70
2022/09/11 01:08:19;;;;;;;2.78;0.70;;;;;;;;;;5083873;28;20200;-70
2022/09/11 01:10:50;;;;;;;0.55;0.55;;;;;;;;;;5083786;28;20192;-70
2022/09/11 01:13:22;;;;;;;0.98;0.60;;;;;;;;;;5083378;28;20203;-70
2022/09/11 01:16:01;;;;;;;1.55;0.80;;;;;;;;;;5083496;28;20205;-70
2022/09/11 01:18:30;;;;;;;3.25;0.80;;;;;;;;;;5083699;28;20527;-70
2022/09/11 01:21:04;;;;;;;0.82;0.70;;;;;;;;;;5083661;28;20220;-70
2022/09/11 01:23:53;;;;;;;1.75;0.60;;;;;;;;;;5083215;28;20222;-70
2022/09/11 01:26:33;;;;;;;2.05;0.80;;;;;;;;;;5083503;28;20247;-70
2022/09/11 01:29:03;;;;;;;1.17;1.08;;;;;;;;;;5083465;28;20247;-70
2022/09/11 01:31:33;;;;;;;1.23;0.77;;;;;;;;;;5082847;28;20395;-70
2022/09/11 01:34:04;;;;;;;1.98;0.80;;;;;;;;;;5082943;28;20188;-70
2022/09/11 01:36:34;;;;;;;0.73;0.63;;;;;;;;;;5083590;28;20504;-70
2022/09/11 01:39:02;;;;;;;1.00;0.88;;;;;;;;;;5083164;28;20203;-70
2022/09/11 01:41:31;;;;;;;1.48;0.82;;;;;;;;;;5082923;28;20220;-70
2022/09/11 01:44:02;;;;;;;3.60;0.80;;;;;;;;;;5083145;28;20203;-70
2022/09/11 01:46:33;;;;;;;1.83;0.80;;;;;;;;;;5083163;28;20386;-70
2022/09/11 01:49:02;;;;;;;2.03;0.75;;;;;;;;;;5083272;28;20263;-70
2022/09/11 01:51:30;;;;;;;0.98;0.90;;;;;;;;;;5082818;28;20197;-70
2022/09/11 01:53:59;;;;;;;2.42;1.02;;;;;;;;;;5082828;28;20520;-70
2022/09/11 01:56:28;;;;;;;5.35;4.63;;;;;;;;;;5082915;28;20196;-70
2022/09/11 01:58:56;;;;;;;4.88;2.28;;;;;;;;;;5082902;28;20197;-70
2022/09/11 02:01:24;;;;;;;1.55;1.00;;;;;;;;;;5082803;28;20299;-70
2022/09/11 02:03:53;;;;;;;1.80;1.02;;;;;;;;;;5082392;28;20219;-70
2022/09/11 02:06:23;;;;;;;3.75;0.93;;;;;;;;;;5082523;28;20222;-70
2022/09/11 02:08:50;;;;;;;1.75;1.00;;;;;;;;;;5082810;28;20230;-70
2022/09/11 02:11:17;;;;;;;0.80;0.80;;;;;;;;;;5082817;28;20196;-70
2022/09/11 02:13:46;;;;;;;2.78;1.20;;;;;;;;;;5082282;28;20211;-70
2022/09/11 02:16:15;;;;;;;0.90;0.75;;;;;;;;;;5082453;28;20196;-70
2022/09/11 02:18:45;;;;;;;3.67;1.00;;;;;;;;;;5082413;28;20200;-70
2022/09/11 02:21:12;;;;;;;0.80;0.80;;;;;;;;;;5082528;28;20430;-70
2022/09/11 02:23:39;;;;;;;1.83;1.00;;;;;;;;;;5082314;28;20196;-70
2022/09/11 02:26:06;;;;;;;3.53;2.40;;;;;;;;;;5082693;28;20212;-70
2022/09/11 02:28:32;;;;;;;1.90;1.23;;;;;;;;;;5082296;28;20195;-70
2022/09/11 02:30:59;;;;;;;1.27;0.98;;;;;;;;;;5082436;28;20223;-70
2022/09/11 02:33:26;;;;;;;1.75;0.77;;;;;;;;;;5082261;28;20205;-70
2022/09/11 02:35:58;;;;;;;0.80;0.80;;;;;;;;;;5082439;28;20526;-70
2022/09/11 02:38:29;;;;;;;1.40;1.02;;;;;;;;;;5082598;28;20197;-70
2022/09/11 02:41:01;;;;;;;0.90;0.90;;;;;;;;;;5082153;28;20652;-70
2022/09/11 02:43:37;;;;;;;1.40;0.98;;;;;;;;;;5081959;28;20222;-70
2022/09/11 02:46:17;;;;;;;2.67;0.77;;;;;;;;;;5081944;28;20365;-70
2022/09/11 02:48:51;;;;;;;3.10;0.88;;;;;;;;;;5082281;28;20203;-70
2022/09/11 02:51:20;;;;;;;0.80;0.80;;;;;;;;;;5082279;28;20192;-70
2022/09/11 02:53:50;;;;;;;1.25;0.80;;;;;;;;;;5081925;28;20201;-70
2022/09/11 02:56:20;;;;;;;1.92;0.80;;;;;;;;;;5081989;28;20203;-70
2022/09/11 02:58:50;;;;;;;1.08;1.00;;;;;;;;;;5082064;28;20202;-70
2022/09/11 03:01:17;;;;;;;1.70;0.88;;;;;;;;;;5082040;28;20216;-70
2022/09/11 03:03:44;;;;;;;3.60;1.20;;;;;;;;;;5081814;28;20200;-70
2022/09/11 03:06:13;;;;;;;1.00;0.90;;;;;;;;;;5081659;28;20294;-70
2022/09/11 03:08:40;;;;;;;1.10;1.00;;;;;;;;;;5081895;28;20196;-70
2022/09/11 03:11:08;;;;;;;0.90;0.75;;;;;;;;;;5082051;28;20199;-70
2022/09/11 03:13:35;;;;;;;1.30;1.02;;;;;;;;;;5081818;28;20235;-70
2022/09/11 03:16:02;;;;;;;1.25;1.05;;;;;;;;;;5081886;28;20227;-70
2022/09/11 03:18:28;;;;;;;0.95;0.63;;;;;;;;;;5081934;28;20241;-70
2022/09/11 03:20:54;;;;;;;0.88;0.88;;;;;;;;;;5081794;28;20213;-70
2022/09/11 03:23:20;;;;;;;1.38;0.90;;;;;;;;;;5081682;28;20205;-70
2022/09/11 03:25:47;;;;;;;1.38;0.80;;;;;;;;;;5081774;28;20212;-70
2022/09/11 03:28:15;;;;;;;0.80;0.80;;;;;;;;;;5081933;28;20196;-69
2022/09/11 03:30:41;;;;;;;1.05;0.90;;;;;;;;;;5081819;28;20238;-69
2022/09/11 03:33:08;;;;;;;1.67;1.00;;;;;;;;;;5081593;28;20204;-69
2022/09/11 03:35:34;;;;;;;2.70;1.00;;;;;;;;;;5081543;28;20211;-69
2022/09/11 03:38:00;;;;;;;0.95;0.80;;;;;;;;;;5081580;28;20204;-69
2022/09/11 03:40:27;;;;;;;0.93;0.90;;;;;;;;;;5081669;28;20278;-69
2022/09/11 03:42:53;;;;;;;2.17;0.93;;;;;;;;;;5081550;28;20196;-69
2022/09/11 03:45:21;;;;;;;2.60;0.85;;;;;;;;;;5081512;28;20203;-69
2022/09/11 03:47:47;;;;;;;1.70;0.90;;;;;;;;;;5081700;28;20197;-69
2022/09/11 03:50:13;;;;;;;0.95;0.85;;;;;;;;;;5081347;28;20203;-69
2022/09/11 03:52:39;;;;;;;1.52;1.20;;;;;;;;;;5081517;28;20212;-69
2022/09/11 03:55:06;;;;;;;1.30;1.20;;;;;;;;;;5081648;28;20219;-69
2022/09/11 03:57:32;;;;;;;1.42;1.10;;;;;;;;;;5081614;28;20197;-69
2022/09/11 04:00:00;;;;;;;1.02;1.00;;;;;;;;;;5084608;28;20196;-69
2022/09/11 04:02:27;;;;;;;3.55;1.30;;;;;;;;;;5084647;28;20220;-69
2022/09/11 04:04:54;;;;;;;1.90;1.10;;;;;;;;;;5084871;28;20220;-69
2022/09/11 04:07:21;;;;;;;3.17;1.00;;;;;;;;;;5085056;28;20211;-69
2022/09/11 04:09:47;;;;;;;1.50;1.10;;;;;;;;;;5085057;28;20196;-69
2022/09/11 04:12:15;;;;;;;1.77;1.20;;;;;;;;;;5084693;28;20388;-69
2022/09/11 04:14:41;;;;;;;1.65;1.05;;;;;;;;;;5084741;28;20508;-69
2022/09/11 04:17:08;;;;;;;2.45;1.08;;;;;;;;;;5084675;28;20203;-69
2022/09/11 04:19:36;;;;;;;1.25;0.90;;;;;;;;;;5084505;28;20504;-69
2022/09/11 04:22:02;;;;;;;4.00;1.02;;;;;;;;;;5084744;28;20220;-69
2022/09/11 04:24:28;;;;;;;1.60;0.90;;;;;;;;;;5084334;28;20196;-69
2022/09/11 04:26:55;;;;;;;2.20;0.98;;;;;;;;;;5084467;28;20204;-69
2022/09/11 04:29:23;;;;;;;1.63;1.10;;;;;;;;;;5084410;28;20196;-69
2022/09/11 04:31:50;;;;;;;5.45;1.25;;;;;;;;;;5084388;28;20194;-69
2022/09/11 04:34:16;;;;;;;1.35;1.23;;;;;;;;;;5084149;28;20373;-69
2022/09/11 04:36:43;;;;;;;2.22;0.93;;;;;;;;;;5084418;28;20249;-69
2022/09/11 04:39:10;;;;;;;2.78;1.30;;;;;;;;;;5084405;28;20202;-69
2022/09/11 04:41:37;;;;;;;1.05;1.00;;;;;;;;;;5084201;28;20551;-69
2022/09/11 04:44:03;;;;;;;1.35;1.05;;;;;;;;;;5084042;28;20197;-69
2022/09/11 04:46:29;;;;;;;1.48;1.20;;;;;;;;;;5084031;28;20196;-69
2022/09/11 04:48:58;;;;;;;1.58;1.45;;;;;;;;;;5084288;28;20219;-69
2022/09/11 04:51:25;;;;;;;1.13;1.00;;;;;;;;;;5084048;28;20196;-69
2022/09/11 04:53:56;;;;;;;2.88;1.13;;;;;;;;;;5083745;28;20203;-69
2022/09/11 04:56:22;;;;;;;2.53;1.10;;;;;;;;;;5084049;28;20203;-69
2022/09/11 04:58:53;;;;;;;2.25;1.60;;;;;;;;;;5083925;28;20396;-69
2022/09/11 05:01:19;;;;;;;1.75;1.20;;;;;;;;;;5083992;28;20208;-69
2022/09/11 05:03:45;;;;;;;1.23;1.13;;;;;;;;;;5083827;28;20211;-69
2022/09/11 05:06:15;;;;;;;4.13;1.20;;;;;;;;;;5083571;28;20217;-69
2022/09/11 05:08:41;;;;;;;1.35;1.35;;;;;;;;;;5083796;28;20527;-69
2022/09/11 05:11:10;;;;;;;2.47;0.88;;;;;;;;;;5083382;28;20275;-69
2022/09/11 05:13:36;;;;;;;1.08;0.93;;;;;;;;;;5083278;28;20499;-69
2022/09/11 05:16:03;;;;;;;3.30;1.05;;;;;;;;;;5083868;28;20499;-69
2022/09/11 05:18:29;;;;;;;2.95;1.00;;;;;;;;;;5083789;28;20204;-69
2022/09/11 05:20:59;;;;;;;3.83;1.50;;;;;;;;;;5083604;28;20200;-69
2022/09/11 05:23:26;;;;;;;1.90;1.80;;;;;;;;;;5083229;28;20246;-69
2022/09/11 05:25:56;;;;;;;1.67;1.55;;;;;;;;;;5083229;28;20208;-69
2022/09/11 05:28:24;;;;;;;2.10;2.00;;;;;;;;;;5083639;28;20396;-69
2022/09/11 05:30:52;;;;;;;1.85;1.75;;;;;;;;;;5083389;28;20271;-69
2022/09/11 05:33:18;;;;;;;4.28;1.80;;;;;;;;;;5083090;28;20203;-69
2022/09/11 05:35:45;;;;;;;4.47;1.70;;;;;;;;;;5083264;28;20196;-69
2022/09/11 05:38:11;;;;;;;1.90;1.80;;;;;;;;;;5083095;28;20197;-69
2022/09/11 05:40:42;;;;;;;2.20;2.10;;;;;;;;;;5082933;28;20508;-69
2022/09/11 05:43:09;;;;;;;1.63;1.63;;;;;;;;;;5082836;28;20480;-69
2022/09/11 05:45:36;;;;;;;1.80;1.70;;;;;;;;;;5083218;28;20508;-69
2022/09/11 05:48:03;;;;;;;1.70;1.60;;;;;;;;;;5083032;28;20224;-69
2022/09/11 05:50:30;;;;;;;2.95;1.67;;;;;;;;;;5082875;28;20197;-69
2022/09/11 05:52:56;;;;;;;3.97;1.70;;;;;;;;;;5082719;28;20495;-69
2022/09/11 05:55:23;;;;;;;2.97;1.75;;;;;;;;;;5083060;28;20553;-69
2022/09/11 05:57:51;;;;;;;2.55;1.77;;;;;;;;;;5082792;28;20520;-69
2022/09/11 06:00:17;;;;;;;2.10;2.00;;;;;;;;;;5082683;28;20203;-69
2022/09/11 06:02:45;;;;;;;2.72;1.73;;;;;;;;;;5082632;28;20411;-69
2022/09/11 06:05:12;;;;;;;4.72;2.40;;;;;;;;;;5082660;28;20216;-69
2022/09/11 06:07:38;;;;;;;3.70;2.05;;;;;;;;;;5082668;28;20197;-69
2022/09/11 06:10:06;;;;;;;1.83;1.73;;;;;;;;;;5082525;28;20211;-69
2022/09/11 06:12:32;;;;;;;2.15;1.75;;;;;;;;;;5082513;28;20199;-69
2022/09/11 06:14:58;;;;;;;3.72;2.20;;;;;;;;;;5082649;28;20219;-69
2022/09/11 06:17:24;;;;;;;2.00;1.90;;;;;;;;;;5082475;28;20203;-69
2022/09/11 06:19:53;;;;;;;2.92;2.22;;;;;;;;;;5082539;28;20200;-69
2022/09/11 06:22:20;;;;;;;2.58;2.38;;;;;;;;;;5081438;28;20287;-69
2022/09/11 06:24:48;;;;;;;2.90;2.40;;;;;;;;;;5082493;28;20516;-69
2022/09/11 06:27:15;;;;;;;5.63;2.78;;;;;;;;;;5082248;28;20212;-69
2022/09/11 06:29:43;;;;;;;5.35;3.45;;;;;;;;;;5082184;28;20200;-69
2022/09/11 06:32:10;;;;;;;2.65;2.53;;;;;;;;;;5082180;28;20492;-69
2022/09/11 06:34:36;;;;;;;2.58;2.38;;;;;;;;;;5082647;28;20496;-69
2022/09/11 06:37:04;;;;;;;3.15;2.90;;;;;;;;;;5082130;28;20504;-69
2022/09/11 06:39:30;;;;;;;2.90;2.63;;;;;;;;;;5082383;28;20200;-68
2022/09/11 06:41:56;;;;;;;2.55;2.35;;;;;;;;;;5082073;28;20311;-68
2022/09/11 06:44:24;;;;;;;3.58;3.15;;;;;;;;;;5082374;28;20196;-69
2022/09/11 06:46:50;;;;;;;2.50;2.40;;;;;;;;;;5082170;28;20208;-62
2022/09/11 06:49:17;;;;;;;2.88;2.40;;;;;;;;;;5082055;28;20508;-62
2022/09/11 06:51:43;;;;;;;3.33;3.20;;;;;;;;;;5081900;28;20515;-62
2022/09/11 06:54:10;;;;;;;3.22;2.90;;;;;;;;;;5082083;28;20196;-62
2022/09/11 06:56:37;;;;;;;4.35;3.55;;;;;;;;;;5082022;28;20203;-62
2022/09/11 06:59:03;;;;;;;3.47;3.28;;;;;;;;;;5082086;28;20201;-61
2022/09/11 07:01:29;;;;;;;4.07;3.65;;;;;;;;;;5081960;28;20196;-62
2022/09/11 07:03:56;;;;;;;4.30;3.90;;;;;;;;;;5081545;28;20200;-62
2022/09/11 07:06:23;;;;;;;3.88;3.30;;;;;;;;;;5081847;28;20228;-62
2022/09/11 07:08:50;;;;;;;4.18;3.88;;;;;;;;;;5082071;28;20197;-62
2022/09/11 07:11:19;;;;;;;4.03;3.83;;;;;;;;;;5081885;28;20196;-62
2022/09/11 07:13:45;;;;;;;4.35;4.00;;;;;;;;;;5081622;28;20540;-61
2022/09/11 07:16:12;;;;;;;5.55;4.57;;;;;;;;;;5082009;28;20196;-62
2022/09/11 07:18:39;;;;;;;4.80;4.32;;;;;;;;;;5081632;28;20197;-62
2022/09/11 07:21:06;;;;;;;6.47;4.45;;;;;;;;;;5081828;28;20204;-62
2022/09/11 07:23:33;;;;;;;5.35;4.68;;;;;;;;;;5081663;28;20226;-62
2022/09/11 07:26:01;;;;;;;6.30;4.38;;;;;;;;;;5081631;28;20250;-62
2022/09/11 07:28:29;;;;;;;6.57;4.82;;;;;;;;;;5081784;28;20420;-62
2022/09/11 07:31:02;;;;;;;5.13;4.72;;;;;;;;;;5081602;28;20267;-62
2022/09/11 07:33:28;;;;;;;5.15;4.63;;;;;;;;;;5084002;28;20197;-61
2022/09/11 07:35:55;;;;;;;6.07;5.10;;;;;;;;;;5085547;28;20204;-61
2022/09/11 07:38:21;;;;;;;5.57;4.80;;;;;;;;;;5085424;28;20196;-61
2022/09/11 07:40:48;;;;;;;5.07;4.45;;;;;;;;;;5085364;28;20196;-61
2022/09/11 07:43:14;;;;;;;6.35;5.03;;;;;;;;;;5084954;28;20262;-61
2022/09/11 07:45:42;;;;;;;5.40;4.45;;;;;;;;;;5085278;28;20204;-61
2022/09/11 07:48:08;;;;;;;5.20;4.70;;;;;;;;;;5085540;28;20204;-61
2022/09/11 07:50:34;;;;;;;4.95;4.57;;;;;;;;;;5085090;28;20196;-61
2022/09/11 07:53:00;;;;;;;5.55;5.05;;;;;;;;;;5084816;28;20200;-61
2022/09/11 07:55:27;;;;;;;4.63;4.32;;;;;;;;;;5084707;28;20204;-61
2022/09/11 07:57:53;;;;;;;7.35;4.18;;;;;;;;;;5084971;28;20195;-62
2022/09/11 08:00:19;;;;;;;4.75;4.35;;;;;;;;;;5084833;28;20203;-62
2022/09/11 08:02:48;;;;;;;8.90;4.32;;;;;;;;;;5084730;28;20227;-62
2022/09/11 08:05:14;;;;;;;5.35;4.75;;;;;;;;;;5084891;28;20262;-62
2022/09/11 08:07:40;;;;;;;5.10;4.80;;;;;;;;;;5084908;28;20254;-62
2022/09/11 08:10:10;;;;;;;5.60;5.13;;;;;;;;;;5084941;28;20219;-62
2022/09/11 08:12:36;;;;;;;5.00;4.60;;;;;;;;;;5084623;28;20192;-62
2022/09/11 08:15:03;;;;;;;6.47;5.10;;;;;;;;;;5084978;28;20204;-62
2022/09/11 08:17:30;;;;;;;6.32;4.60;;;;;;;;;;5084884;28;20205;-62
2022/09/11 08:19:58;;;;;;;8.05;4.90;;;;;;;;;;5084743;28;20196;-63
2022/09/11 08:22:24;;;;;;;5.07;4.65;;;;;;;;;;5084507;28;20222;-62
2022/09/11 08:24:50;;;;;;;6.60;5.10;;;;;;;;;;5084598;28;20275;-63
2022/09/11 08:27:16;;;;;;;4.60;4.43;;;;;;;;;;5084403;28;20212;-63
2022/09/11 08:29:43;;;;;;;6.18;5.40;;;;;;;;;;5084648;28;20203;-63
2022/09/11 08:32:09;;;;;;;5.72;5.32;;;;;;;;;;5084399;28;20267;-63
2022/09/11 08:34:37;;;;;;;5.28;4.78;;;;;;;;;;5084503;28;20267;-63
2022/09/11 08:37:05;;;;;;;5.05;4.63;;;;;;;;;;5084344;28;20267;-63
2022/09/11 08:39:31;;;;;;;5.13;4.80;;;;;;;;;;5084165;28;20392;-63
2022/09/11 08:42:01;;;;;;;6.93;4.85;;;;;;;;;;5084268;28;20203;-63
2022/09/11 08:44:29;;;;;;;5.65;4.57;;;;;;;;;;5083516;28;20504;-63
2022/09/11 08:46:59;;;;;;;4.93;4.32;;;;;;;;;;5084212;28;20197;-63
2022/09/11 08:49:26;;;;;;;6.65;4.80;;;;;;;;;;5085041;28;20196;-63
2022/09/11 08:51:54;;;;;;;4.72;4.32;;;;;;;;;;5084317;28;20203;-63
2022/09/11 08:54:26;;;;;;;9.40;4.45;;;;;;;;;;5083582;28;20242;-63
2022/09/11 08:56:52;;;;;;;4.65;4.35;;;;;;;;;;5084158;28;20278;-63
2022/09/11 08:59:25;;;;;;;4.45;4.05;;;;;;;;;;5084062;28;20196;-63
2022/09/11 09:01:56;;;;;;;4.85;4.45;;;;;;;;;;5083929;28;20228;-63
2022/09/11 09:04:34;;;;;;;4.05;3.80;;;;;;;;;;5083622;28;20197;-63
2022/09/11 09:07:05;;;;;;;4.10;3.90;;;;;;;;;;5083662;28;20196;-63
2022/09/11 09:09:37;;;;;;;4.00;3.60;;;;;;;;;;5083809;28;20196;-63
2022/09/11 09:12:08;;;;;;;4.03;3.90;;;;;;;;;;5083909;28;20504;-63
2022/09/11 09:14:44;;;;;;;4.28;3.88;;;;;;;;;;5083854;28;20223;-63
2022/09/11 09:17:13;;;;;;;5.82;3.72;;;;;;;;;;5083553;28;20363;-63
2022/09/11 09:19:42;;;;;;;4.13;3.92;;;;;;;;;;5083279;28;20239;-63
2022/09/11 09:22:11;;;;;;;4.18;3.88;;;;;;;;;;5083046;28;20203;-63
2022/09/11 09:24:42;;;;;;;5.00;4.60;;;;;;;;;;5083290;28;20205;-63
2022/09/11 09:27:12;;;;;;;4.72;4.22;;;;;;;;;;5083253;28;20205;-63
2022/09/11 09:29:39;;;;;;;4.72;4.40;;;;;;;;;;5083280;28;20196;-63
2022/09/11 09:32:06;;;;;;;4.60;4.35;;;;;;;;;;5083032;28;20531;-62
2022/09/11 09:34:34;;;;;;;6.20;4.63;;;;;;;;;;5083465;28;20197;-63
2022/09/11 09:37:04;;;;;;;5.43;5.03;;;;;;;;;;5083105;28;20212;-63
2022/09/11 09:39:30;;;;;;;5.30;4.80;;;;;;;;;;5083029;28;20197;-63
2022/09/11 09:42:09;;;;;;;5.15;4.80;;;;;;;;;;5082891;28;20203;-63
2022/09/11 09:44:41;;;;;;;7.07;5.00;;;;;;;;;;5082883;28;20205;-63
2022/09/11 09:47:10;;;;;;;5.38;4.85;;;;;;;;;;5083088;28;20212;-63
2022/09/11 09:49:37;;;;;;;6.00;4.45;;;;;;;;;;5082927;28;20435;-63
2022/09/11 09:52:12;;;;;;;5.03;4.63;;;;;;;;;;5082965;28;20196;-63
2022/09/11 09:54:39;;;;;;;5.13;4.13;;;;;;;;;;5082810;28;20218;-63
2022/09/11 09:57:06;;;;;;;6.22;4.63;;;;;;;;;;5081854;28;20197;-63
2022/09/11 09:59:35;;;;;;;3.95;3.65;;;;;;;;;;5083175;28;20196;-63
2022/09/11 10:02:01;;;;;;;3.58;3.30;;;;;;;;;;5082987;28;20520;-63
2022/09/11 10:04:29;;;;;;;4.90;4.07;;;;;;;;;;5082474;28;20219;-63
2022/09/11 10:07:05;;;;;;;3.30;3.15;;;;;;;;;;5082669;28;20197;-63
2022/09/11 10:09:31;;;;;;;2.95;2.75;;;;;;;;;;5082480;28;20497;-63
2022/09/11 10:12:01;;;;;;;3.03;2.90;;;;;;;;;;5082481;28;20200;-63
2022/09/11 10:14:28;;;;;;;2.90;2.63;;;;;;;;;;5082166;28;20213;-63
2022/09/11 10:16:55;;;;;;;3.28;2.45;;;;;;;;;;5082338;28;20196;-63
2022/09/11 10:19:39;;;;;;;2.60;2.50;;;;;;;;;;5082681;28;20196;-62
2022/09/11 10:22:22;;;;;;;3.53;3.20;;;;;;;;;;5082599;28;20196;-63
2022/09/11 10:24:55;;;;;;;5.82;2.95;;;;;;;;;;5082394;28;20200;-63
2022/09/11 10:27:22;;;;;;;3.13;3.03;;;;;;;;;;5082254;28;20204;-63
2022/09/11 10:29:49;;;;;;;2.90;2.80;;;;;;;;;;5082365;28;20378;-63
2022/09/11 10:32:17;;;;;;;3.90;3.50;;;;;;;;;;5081956;28;20204;-63
2022/09/11 10:34:44;;;;;;;3.72;3.45;;;;;;;;;;5082655;28;20496;-63
2022/09/11 10:37:19;;;;;;;3.78;3.30;;;;;;;;;;5082271;28;20204;-63
2022/09/11 10:39:46;;;;;;;3.47;3.28;;;;;;;;;;5082544;28;20199;-63
2022/09/11 10:42:15;;;;;;;4.15;3.88;;;;;;;;;;5082230;28;20196;-63
2022/09/11 10:44:43;;;;;;;4.60;3.60;;;;;;;;;;5082397;28;20216;-63
2022/09/11 10:47:14;;;;;;;4.88;4.57;;;;;;;;;;5082083;28;20219;-63
2022/09/11 10:49:42;;;;;;;4.18;3.80;;;;;;;;;;5082400;28;20195;-63
2022/09/11 10:52:16;;;;;;;3.60;3.40;;;;;;;;;;5082078;28;20196;-63
2022/09/11 10:54:53;;;;;;;3.50;3.30;;;;;;;;;;5082145;28;20198;-63
2022/09/11 10:57:24;;;;;;;3.40;3.10;;;;;;;;;;5081839;28;20413;-63
2022/09/11 10:59:55;;;;;;;4.25;3.03;;;;;;;;;;5082199;28;20203;-63
2022/09/11 11:02:27;;;;;;;4.57;4.28;;;;;;;;;;5081845;28;20500;-63
2022/09/11 11:04:55;;;;;;;3.40;3.17;;;;;;;;;;5082132;28;20212;-63
2022/09/11 11:07:28;;;;;;;4.57;3.30;;;;;;;;;;5082523;28;20200;-63
2022/09/11 11:09:59;;;;;;;3.80;3.50;;;;;;;;;;5085919;28;20549;-63
2022/09/11 11:12:39;;;;;;;4.07;3.60;;;;;;;;;;5085886;28;20196;-63
2022/09/11 11:15:12;;;;;;;4.22;4.00;;;;;;;;;;5085905;28;20196;-62
2022/09/11 11:17:43;;;;;;;5.75;3.78;;;;;;;;;;5085776;28;20267;-63
2022/09/11 11:20:21;;;;;;;4.05;3.67;;;;;;;;;;5085744;28;20492;-63
2022/09/11 11:22:59;;;;;;;3.42;3.17;;;;;;;;;;5085435;28;20203;-63
2022/09/11 11:25:27;;;;;;;3.38;3.17;;;;;;;;;;5085689;28;20223;-63
2022/09/11 11:28:17;;;;;;;3.88;3.60;;;;;;;;;;5085623;28;20196;-63
2022/09/11 11:30:47;;;;;;;4.90;3.25;;;;;;;;;;5085422;28;20208;-63
2022/09/11 11:33:35;;;;;;;3.65;3.40;;;;;;;;;;5085423;28;20199;-63
2022/09/11 11:36:04;;;;;;;2.95;2.75;;;;;;;;;;5085538;28;20414;-63
2022/09/11 11:38:33;;;;;;;2.83;2.72;;;;;;;;;;5085492;28;20219;-63
2022/09/11 11:41:03;;;;;;;4.63;4.05;;;;;;;;;;5085225;28;20200;-63
2022/09/11 11:43:31;;;;;;;2.35;2.25;;;;;;;;;;5085130;28;20269;-63
2022/09/11 11:46:00;;;;;;;2.97;2.70;;;;;;;;;;5085401;28;20210;-63
2022/09/11 11:48:30;;;;;;;2.75;2.50;;;;;;;;;;5085356;28;20196;-63
2022/09/11 11:50:57;;;;;;;2.55;2.40;;;;;;;;;;5085267;28;20229;-63
2022/09/11 11:53:27;;;;;;;2.60;2.40;;;;;;;;;;5084917;28;20196;-63
2022/09/11 11:55:58;;;;;;;3.10;2.90;;;;;;;;;;5085007;28;20386;-62
2022/09/11 11:58:29;;;;;;;2.90;2.80;;;;;;;;;;5085256;28;20280;-62
2022/09/11 12:00:58;;;;;;;3.10;2.90;;;;;;;;;;5085322;28;20511;-63
2022/09/11 12:03:27;;;;;;;2.85;2.75;;;;;;;;;;5084671;28;20247;-63
2022/09/11 12:05:54;;;;;;;2.78;2.60;;;;;;;;;;5084727;28;20247;-63
2022/09/11 12:08:21;;;;;;;2.40;2.40;;;;;;;;;;5084827;28;20196;-63
2022/09/11 12:10:55;;;;;;;2.08;1.98;;;;;;;;;;5084976;28;20551;-63
2022/09/11 12:13:24;;;;;;;3.20;2.55;;;;;;;;;;5084554;28;20196;-63
2022/09/11 12:16:11;;;;;;;2.90;2.70;;;;;;;;;;5084672;28;20438;-63
2022/09/11 12:18:37;;;;;;;2.60;2.50;;;;;;;;;;5078919;28;20556;-63
2022/09/11 12:21:22;;;;;;;3.25;3.00;;;;;;;;;;5084351;28;20380;-61
2022/09/11 12:24:07;;;;;;;3.28;2.97;;;;;;;;;;5084335;28;20413;-63
2022/09/11 12:26:35;;;;;;;3.45;3.30;;;;;;;;;;5084634;28;20250;-63
2022/09/11 12:29:19;;;;;;;3.55;3.35;;;;;;;;;;5084303;28;20196;-63
2022/09/11 12:32:01;;;;;;;2.70;2.60;;;;;;;;;;5084624;28;20203;-63
2022/09/11 12:34:47;;;;;;;3.33;3.13;;;;;;;;;;5083872;28;20192;-63
2022/09/11 12:37:15;;;;;;;2.83;2.67;;;;;;;;;;5084167;28;20200;-63
2022/09/11 12:39:46;;;;;;;3.42;2.70;;;;;;;;;;5084773;28;20527;-63
2022/09/11 12:42:28;;;;;;;4.25;2.97;;;;;;;;;;5084099;28;20200;-63
2022/09/11 12:44:59;;;;;;;3.22;3.13;;;;;;;;;;5083804;28;20222;-63
2022/09/11 12:47:27;;;;;;;3.15;2.53;;;;;;;;;;5084046;28;20211;-63
2022/09/11 12:49:55;;;;;;;2.55;2.40;;;;;;;;;;5083890;28;20202;-62
2022/09/11 12:52:34;;;;;;;3.05;2.85;;;;;;;;;;5084089;28;20203;-63
2022/09/11 12:55:04;;;;;;;2.35;2.25;;;;;;;;;;5084137;28;20237;-63
2022/09/11 12:57:34;;;;;;;2.50;2.40;;;;;;;;;;5083925;28;20196;-63
2022/09/11 13:00:02;;;;;;;2.63;2.50;;;;;;;;;;5083999;28;20408;-63
2022/09/11 13:02:34;;;;;;;2.70;2.50;;;;;;;;;;5083527;28;20208;-63
2022/09/11 13:05:00;;;;;;;3.90;2.90;;;;;;;;;;5083640;28;20386;-63
2022/09/11 13:07:30;;;;;;;3.35;3.17;;;;;;;;;;5083916;28;20199;-63
2022/09/11 13:09:59;;;;;;;2.70;2.60;;;;;;;;;;5083882;28;20196;-63
2022/09/11 13:12:45;;;;;;;2.50;2.30;;;;;;;;;;5083291;28;20211;-63
2022/09/11 13:15:30;;;;;;;3.15;2.85;;;;;;;;;;5083731;28;20200;-63
2022/09/11 13:17:56;;;;;;;2.33;2.20;;;;;;;;;;5083408;28;20196;-63
2022/09/11 13:20:23;;;;;;;2.78;2.55;;;;;;;;;;5083515;28;20233;-63
2022/09/11 13:22:50;;;;;;;2.80;2.70;;;;;;;;;;5083161;28;20706;-63
2022/09/11 13:25:17;;;;;;;2.65;2.45;;;;;;;;;;5083464;28;20303;-63
2022/09/11 13:27:45;;;;;;;3.15;2.47;;;;;;;;;;5083421;28;20203;-63
2022/09/11 13:30:12;;;;;;;2.80;2.60;;;;;;;;;;5083225;28;20523;-63
2022/09/11 13:32:40;;;;;;;3.20;2.30;;;;;;;;;;5083140;28;20196;-62
2022/09/11 13:35:09;;;;;;;2.75;2.65;;;;;;;;;;5083186;28;20192;-63
2022/09/11 13:37:39;;;;;;;3.03;2.70;;;;;;;;;;5083131;28;20299;-63
2022/09/11 13:40:07;;;;;;;2.50;2.40;;;;;;;;;;5083246;28;20227;-63
2022/09/11 13:42:34;;;;;;;2.80;2.70;;;;;;;;;;5082914;28;20504;-63
2022/09/11 13:45:01;;;;;;;2.70;2.70;;;;;;;;;;5083026;28;20219;-63
2022/09/11 13:47:29;;;;;;;3.28;3.00;;;;;;;;;;5082832;28;20207;-63
2022/09/11 13:49:58;;;;;;;3.13;2.92;;;;;;;;;;5082942;28;20242;-63
2022/09/11 13:52:25;;;;;;;3.22;3.00;;;;;;;;;;5082461;28;20200;-63
2022/09/11 13:54:53;;;;;;;3.53;3.10;;;;;;;;;;5082908;28;20211;-62
2022/09/11 13:57:21;;;;;;;3.53;3.17;;;;;;;;;;5082905;28;20626;-63
2022/09/11 13:59:48;;;;;;;2.70;2.60;;;;;;;;;;5082635;28;20263;-62
2022/09/11 14:02:21;;;;;;;3.50;3.30;;;;;;;;;;5082586;28;20196;-63
2022/09/11 14:04:51;;;;;;;5.13;3.42;;;;;;;;;;5082377;28;20228;-63
2022/09/11 14:07:20;;;;;;;3.50;3.40;;;;;;;;;;5082711;28;20240;-63
2022/09/11 14:09:47;;;;;;;3.33;3.20;;;;;;;;;;5082546;28;20200;-63
2022/09/11 14:12:13;;;;;;;3.85;3.65;;;;;;;;;;5082323;28;20203;-62
2022/09/11 14:14:41;;;;;;;3.33;3.22;;;;;;;;;;5082376;28;20191;-63
2022/09/11 14:17:09;;;;;;;4.80;3.67;;;;;;;;;;5082340;28;20201;-63
2022/09/11 14:19:36;;;;;;;3.45;3.25;;;;;;;;;;5082347;28;20204;-63
2022/09/11 14:22:12;;;;;;;3.05;2.80;;;;;;;;;;5082534;28;20196;-63
2022/09/11 14:24:48;;;;;;;4.95;3.45;;;;;;;;;;5082412;28;20216;-61
2022/09/11 14:27:30;;;;;;;3.38;3.10;;;;;;;;;;5082276;28;20215;-63
2022/09/11 14:29:56;;;;;;;3.63;3.30;;;;;;;;;;5082114;28;20519;-63
2022/09/11 14:32:29;;;;;;;3.13;3.00;;;;;;;;;;5082254;28;20420;-63
2022/09/11 14:34:56;;;;;;;3.80;3.50;;;;;;;;;;5082400;28;20366;-63
2022/09/11 14:37:23;;;;;;;3.35;3.15;;;;;;;;;;5082343;28;20204;-63
2022/09/11 14:39:53;;;;;;;2.80;2.65;;;;;;;;;;5082243;28;20195;-63
2022/09/11 14:42:21;;;;;;;3.13;2.83;;;;;;;;;;5081332;28;20196;-63
2022/09/11 14:44:48;;;;;;;2.78;2.58;;;;;;;;;;5082352;28;20518;-63
2022/09/11 14:47:16;;;;;;;2.78;2.58;;;;;;;;;;5082261;28;20430;-63
2022/09/11 14:49:42;;;;;;;2.60;2.60;;;;;;;;;;5082110;28;20196;-63
2022/09/11 14:52:12;;;;;;;2.67;2.47;;;;;;;;;;5081978;28;20210;-63
2022/09/11 14:54:38;;;;;;;2.28;2.13;;;;;;;;;;5082019;28;20507;-63